Pirane, Argentina
Current Conditions -  °F | °C
As of 12:00 AM on Friday 19 Dec 2014 (Local Time) from SARF Reporting Station
Clear Clear  
Wind Chill: 25°   Ceiling: Unl
Heat Index: 26°   Visibility: 6mi
Dew Point: 24°   Wind: 5mph
Humidity: 94%   Direction: 140°SE
Pressure: 29.8"   Gusts: NA
Location:  25.72°S, 59.1°W
Report Text: SARF 190300Z 14004KT CAVOK 25/24 Q1009
Loading
Personal Weather Stations






























Interactive Weather Map New forecast layout! Learn more

10-Day Weather Forecast

Advertisements
Track Severe Weather on mobile